sensor_id;sensor_type;location;lat;lon;timestamp;P1;durP1;ratioP1;P2;durP2;ratioP2
9465;SDS011;4771;48.726;9.006;2022-09-24T00:01:06;5.33;;;4.37;;
9465;SDS011;4771;48.726;9.006;2022-09-24T00:03:33;5.38;;;4.35;;
9465;SDS011;4771;48.726;9.006;2022-09-24T00:06:02;5.87;;;4.30;;
9465;SDS011;4771;48.726;9.006;2022-09-24T00:08:30;7.20;;;4.60;;
9465;SDS011;4771;48.726;9.006;2022-09-24T00:10:59;8.03;;;4.90;;
9465;SDS011;4771;48.726;9.006;2022-09-24T00:13:27;5.27;;;4.40;;
9465;SDS011;4771;48.726;9.006;2022-09-24T00:15:54;6.77;;;4.37;;
9465;SDS011;4771;48.726;9.006;2022-09-24T00:18:21;6.60;;;4.50;;
9465;SDS011;4771;48.726;9.006;2022-09-24T00:20:48;6.73;;;4.53;;
9465;SDS011;4771;48.726;9.006;2022-09-24T00:23:16;5.20;;;4.57;;
9465;SDS011;4771;48.726;9.006;2022-09-24T00:25:43;7.43;;;4.63;;
9465;SDS011;4771;48.726;9.006;2022-09-24T00:28:29;5.37;;;4.23;;
9465;SDS011;4771;48.726;9.006;2022-09-24T00:30:56;4.90;;;4.40;;
9465;SDS011;4771;48.726;9.006;2022-09-24T00:33:24;5.43;;;4.47;;
9465;SDS011;4771;48.726;9.006;2022-09-24T00:35:52;5.10;;;4.60;;
9465;SDS011;4771;48.726;9.006;2022-09-24T00:38:24;5.67;;;4.60;;
9465;SDS011;4771;48.726;9.006;2022-09-24T00:40:51;6.50;;;5.13;;
9465;SDS011;4771;48.726;9.006;2022-09-24T00:43:25;8.43;;;5.67;;
9465;SDS011;4771;48.726;9.006;2022-09-24T00:45:55;11.57;;;5.67;;
9465;SDS011;4771;48.726;9.006;2022-09-24T00:48:27;7.67;;;5.83;;
9465;SDS011;4771;48.726;9.006;2022-09-24T00:50:54;7.83;;;5.80;;
9465;SDS011;4771;48.726;9.006;2022-09-24T00:53:21;9.00;;;5.73;;
9465;SDS011;4771;48.726;9.006;2022-09-24T00:55:55;8.97;;;5.73;;
9465;SDS011;4771;48.726;9.006;2022-09-24T00:58:22;7.70;;;5.63;;
9465;SDS011;4771;48.726;9.006;2022-09-24T01:00:51;9.93;;;5.87;;
9465;SDS011;4771;48.726;9.006;2022-09-24T01:03:24;10.20;;;6.10;;
9465;SDS011;4771;48.726;9.006;2022-09-24T01:05:53;7.40;;;5.63;;
9465;SDS011;4771;48.726;9.006;2022-09-24T01:08:21;7.43;;;6.07;;
9465;SDS011;4771;48.726;9.006;2022-09-24T01:10:57;10.50;;;6.10;;
9465;SDS011;4771;48.726;9.006;2022-09-24T01:13:35;8.00;;;6.10;;
9465;SDS011;4771;48.726;9.006;2022-09-24T01:16:14;7.13;;;5.93;;
9465;SDS011;4771;48.726;9.006;2022-09-24T01:18:53;9.50;;;6.30;;
9465;SDS011;4771;48.726;9.006;2022-09-24T01:21:31;8.17;;;6.20;;
9465;SDS011;4771;48.726;9.006;2022-09-24T01:24:12;11.43;;;6.90;;
9465;SDS011;4771;48.726;9.006;2022-09-24T01:26:50;11.00;;;6.47;;
9465;SDS011;4771;48.726;9.006;2022-09-24T01:29:36;9.23;;;6.07;;
9465;SDS011;4771;48.726;9.006;2022-09-24T01:32:10;9.40;;;6.60;;
9465;SDS011;4771;48.726;9.006;2022-09-24T01:34:45;9.77;;;6.50;;
9465;SDS011;4771;48.726;9.006;2022-09-24T01:37:17;8.07;;;6.73;;
9465;SDS011;4771;48.726;9.006;2022-09-24T01:39:48;9.40;;;6.80;;
9465;SDS011;4771;48.726;9.006;2022-09-24T01:42:17;9.27;;;6.83;;
9465;SDS011;4771;48.726;9.006;2022-09-24T01:44:48;7.33;;;6.60;;
9465;SDS011;4771;48.726;9.006;2022-09-24T01:47:17;10.27;;;6.33;;
9465;SDS011;4771;48.726;9.006;2022-09-24T01:49:49;8.97;;;6.90;;
9465;SDS011;4771;48.726;9.006;2022-09-24T01:52:19;8.30;;;7.40;;
9465;SDS011;4771;48.726;9.006;2022-09-24T01:54:49;8.93;;;7.27;;
9465;SDS011;4771;48.726;9.006;2022-09-24T01:57:20;10.00;;;7.30;;
9465;SDS011;4771;48.726;9.006;2022-09-24T01:59:53;11.83;;;7.30;;
9465;SDS011;4771;48.726;9.006;2022-09-24T02:02:24;9.43;;;7.23;;
9465;SDS011;4771;48.726;9.006;2022-09-24T02:04:56;9.73;;;7.33;;
9465;SDS011;4771;48.726;9.006;2022-09-24T02:07:28;9.17;;;6.60;;
9465;SDS011;4771;48.726;9.006;2022-09-24T02:09:58;9.80;;;7.30;;
9465;SDS011;4771;48.726;9.006;2022-09-24T02:12:27;9.70;;;7.83;;
9465;SDS011;4771;48.726;9.006;2022-09-24T02:15:00;10.97;;;7.20;;
9465;SDS011;4771;48.726;9.006;2022-09-24T02:17:32;9.77;;;7.43;;
9465;SDS011;4771;48.726;9.006;2022-09-24T02:20:02;10.03;;;7.73;;
9465;SDS011;4771;48.726;9.006;2022-09-24T02:22:33;11.10;;;7.77;;
9465;SDS011;4771;48.726;9.006;2022-09-24T02:25:03;8.73;;;7.30;;
9465;SDS011;4771;48.726;9.006;2022-09-24T02:27:33;9.27;;;6.70;;
9465;SDS011;4771;48.726;9.006;2022-09-24T02:30:01;10.90;;;6.03;;
9465;SDS011;4771;48.726;9.006;2022-09-24T02:32:31;7.40;;;5.57;;
9465;SDS011;4771;48.726;9.006;2022-09-24T02:35:01;8.77;;;6.30;;
9465;SDS011;4771;48.726;9.006;2022-09-24T02:37:32;7.10;;;6.00;;
9465;SDS011;4771;48.726;9.006;2022-09-24T02:40:01;7.53;;;5.80;;
9465;SDS011;4771;48.726;9.006;2022-09-24T02:42:29;9.23;;;6.20;;
9465;SDS011;4771;48.726;9.006;2022-09-24T02:44:56;8.90;;;7.00;;
9465;SDS011;4771;48.726;9.006;2022-09-24T02:47:26;10.17;;;7.47;;
9465;SDS011;4771;48.726;9.006;2022-09-24T02:49:53;10.87;;;7.00;;
9465;SDS011;4771;48.726;9.006;2022-09-24T02:52:21;12.07;;;6.93;;
9465;SDS011;4771;48.726;9.006;2022-09-24T02:54:48;7.23;;;6.07;;
9465;SDS011;4771;48.726;9.006;2022-09-24T02:57:15;8.07;;;6.43;;
9465;SDS011;4771;48.726;9.006;2022-09-24T02:59:42;10.60;;;6.03;;
9465;SDS011;4771;48.726;9.006;2022-09-24T03:02:09;10.33;;;6.03;;
9465;SDS011;4771;48.726;9.006;2022-09-24T03:04:37;10.13;;;6.30;;
9465;SDS011;4771;48.726;9.006;2022-09-24T03:07:04;10.70;;;6.13;;
9465;SDS011;4771;48.726;9.006;2022-09-24T03:09:31;7.10;;;6.40;;
9465;SDS011;4771;48.726;9.006;2022-09-24T03:11:58;8.17;;;6.33;;
9465;SDS011;4771;48.726;9.006;2022-09-24T03:14:25;9.83;;;6.40;;
9465;SDS011;4771;48.726;9.006;2022-09-24T03:16:51;7.13;;;6.03;;
9465;SDS011;4771;48.726;9.006;2022-09-24T03:19:18;11.23;;;6.07;;
9465;SDS011;4771;48.726;9.006;2022-09-24T03:21:46;9.47;;;6.20;;
9465;SDS011;4771;48.726;9.006;2022-09-24T03:24:13;10.17;;;6.50;;
9465;SDS011;4771;48.726;9.006;2022-09-24T03:26:40;8.30;;;6.40;;
9465;SDS011;4771;48.726;9.006;2022-09-24T03:29:07;7.80;;;6.40;;
9465;SDS011;4771;48.726;9.006;2022-09-24T03:31:35;8.43;;;5.90;;
9465;SDS011;4771;48.726;9.006;2022-09-24T03:34:00;8.97;;;6.47;;
9465;SDS011;4771;48.726;9.006;2022-09-24T03:36:27;7.50;;;6.50;;
9465;SDS011;4771;48.726;9.006;2022-09-24T03:38:56;8.20;;;6.70;;
9465;SDS011;4771;48.726;9.006;2022-09-24T03:41:23;7.83;;;6.03;;
9465;SDS011;4771;48.726;9.006;2022-09-24T03:43:50;7.77;;;6.53;;
9465;SDS011;4771;48.726;9.006;2022-09-24T03:46:17;8.30;;;6.43;;
9465;SDS011;4771;48.726;9.006;2022-09-24T03:48:44;11.87;;;6.30;;
9465;SDS011;4771;48.726;9.006;2022-09-24T03:51:13;9.10;;;6.30;;
9465;SDS011;4771;48.726;9.006;2022-09-24T03:53:42;11.30;;;6.60;;
9465;SDS011;4771;48.726;9.006;2022-09-24T03:56:11;8.00;;;6.20;;
9465;SDS011;4771;48.726;9.006;2022-09-24T03:58:38;7.67;;;6.60;;
9465;SDS011;4771;48.726;9.006;2022-09-24T04:01:06;7.97;;;6.80;;
9465;SDS011;4771;48.726;9.006;2022-09-24T04:03:34;8.03;;;6.27;;
9465;SDS011;4771;48.726;9.006;2022-09-24T04:06:01;6.80;;;6.07;;
9465;SDS011;4771;48.726;9.006;2022-09-24T04:08:28;7.90;;;5.80;;
9465;SDS011;4771;48.726;9.006;2022-09-24T04:10:55;8.53;;;6.10;;
9465;SDS011;4771;48.726;9.006;2022-09-24T04:13:24;6.20;;;5.60;;
9465;SDS011;4771;48.726;9.006;2022-09-24T04:15:50;6.80;;;6.10;;
9465;SDS011;4771;48.726;9.006;2022-09-24T04:18:19;10.27;;;7.03;;
9465;SDS011;4771;48.726;9.006;2022-09-24T04:20:46;8.23;;;7.43;;
9465;SDS011;4771;48.726;9.006;2022-09-24T04:23:13;8.10;;;6.77;;
9465;SDS011;4771;48.726;9.006;2022-09-24T04:25:42;9.93;;;6.33;;
9465;SDS011;4771;48.726;9.006;2022-09-24T04:28:09;9.53;;;6.90;;
9465;SDS011;4771;48.726;9.006;2022-09-24T04:30:37;9.20;;;7.20;;
9465;SDS011;4771;48.726;9.006;2022-09-24T04:33:04;8.57;;;7.33;;
9465;SDS011;4771;48.726;9.006;2022-09-24T04:35:33;10.07;;;7.07;;
9465;SDS011;4771;48.726;9.006;2022-09-24T04:38:00;12.07;;;7.50;;
9465;SDS011;4771;48.726;9.006;2022-09-24T04:40:28;10.20;;;7.53;;
9465;SDS011;4771;48.726;9.006;2022-09-24T04:42:55;9.00;;;7.17;;
9465;SDS011;4771;48.726;9.006;2022-09-24T04:45:22;10.07;;;7.40;;
9465;SDS011;4771;48.726;9.006;2022-09-24T04:47:50;8.77;;;7.70;;
9465;SDS011;4771;48.726;9.006;2022-09-24T04:50:20;9.97;;;7.80;;
9465;SDS011;4771;48.726;9.006;2022-09-24T04:52:47;9.50;;;7.60;;
9465;SDS011;4771;48.726;9.006;2022-09-24T04:55:14;9.07;;;7.70;;
9465;SDS011;4771;48.726;9.006;2022-09-24T04:57:41;8.30;;;7.30;;
9465;SDS011;4771;48.726;9.006;2022-09-24T05:00:10;9.27;;;7.70;;
9465;SDS011;4771;48.726;9.006;2022-09-24T05:02:40;8.93;;;8.00;;
9465;SDS011;4771;48.726;9.006;2022-09-24T05:05:08;12.70;;;8.70;;
9465;SDS011;4771;48.726;9.006;2022-09-24T05:07:36;9.47;;;7.83;;
9465;SDS011;4771;48.726;9.006;2022-09-24T05:10:04;9.23;;;7.80;;
9465;SDS011;4771;48.726;9.006;2022-09-24T05:12:31;10.87;;;8.37;;
9465;SDS011;4771;48.726;9.006;2022-09-24T05:14:59;14.77;;;8.70;;
9465;SDS011;4771;48.726;9.006;2022-09-24T05:17:26;10.68;;;7.80;;
9465;SDS011;4771;48.726;9.006;2022-09-24T05:19:53;12.40;;;7.50;;
9465;SDS011;4771;48.726;9.006;2022-09-24T05:22:23;8.77;;;7.63;;
9465;SDS011;4771;48.726;9.006;2022-09-24T05:24:51;10.53;;;7.93;;
9465;SDS011;4771;48.726;9.006;2022-09-24T05:27:18;11.20;;;8.43;;
9465;SDS011;4771;48.726;9.006;2022-09-24T05:29:45;10.03;;;7.57;;
9465;SDS011;4771;48.726;9.006;2022-09-24T05:32:13;10.27;;;8.30;;
9465;SDS011;4771;48.726;9.006;2022-09-24T05:34:41;10.10;;;7.87;;
9465;SDS011;4771;48.726;9.006;2022-09-24T05:37:09;10.27;;;7.70;;
9465;SDS011;4771;48.726;9.006;2022-09-24T05:39:38;14.40;;;7.77;;
9465;SDS011;4771;48.726;9.006;2022-09-24T05:42:05;12.43;;;8.03;;
9465;SDS011;4771;48.726;9.006;2022-09-24T05:44:34;9.23;;;7.93;;
9465;SDS011;4771;48.726;9.006;2022-09-24T05:47:01;9.00;;;7.80;;
9465;SDS011;4771;48.726;9.006;2022-09-24T05:49:28;11.70;;;8.00;;
9465;SDS011;4771;48.726;9.006;2022-09-24T05:51:56;9.13;;;7.70;;
9465;SDS011;4771;48.726;9.006;2022-09-24T05:54:23;10.90;;;7.50;;
9465;SDS011;4771;48.726;9.006;2022-09-24T05:56:51;8.83;;;7.93;;
9465;SDS011;4771;48.726;9.006;2022-09-24T05:59:18;9.93;;;7.47;;
9465;SDS011;4771;48.726;9.006;2022-09-24T06:01:45;11.20;;;8.00;;
9465;SDS011;4771;48.726;9.006;2022-09-24T06:04:13;14.37;;;7.87;;
9465;SDS011;4771;48.726;9.006;2022-09-24T06:06:41;11.23;;;8.20;;
9465;SDS011;4771;48.726;9.006;2022-09-24T06:09:08;9.87;;;7.83;;
9465;SDS011;4771;48.726;9.006;2022-09-24T06:11:35;10.40;;;7.73;;
9465;SDS011;4771;48.726;9.006;2022-09-24T06:14:04;11.05;;;8.27;;
9465;SDS011;4771;48.726;9.006;2022-09-24T06:16:31;10.63;;;7.90;;
9465;SDS011;4771;48.726;9.006;2022-09-24T06:18:58;8.93;;;7.33;;
9465;SDS011;4771;48.726;9.006;2022-09-24T06:21:25;9.43;;;8.47;;
9465;SDS011;4771;48.726;9.006;2022-09-24T06:23:52;9.17;;;8.10;;
9465;SDS011;4771;48.726;9.006;2022-09-24T06:26:19;10.30;;;8.30;;
9465;SDS011;4771;48.726;9.006;2022-09-24T06:28:46;12.43;;;8.27;;
9465;SDS011;4771;48.726;9.006;2022-09-24T06:31:15;13.90;;;8.20;;
9465;SDS011;4771;48.726;9.006;2022-09-24T06:33:41;8.15;;;7.32;;
9465;SDS011;4771;48.726;9.006;2022-09-24T06:36:08;10.80;;;7.43;;
9465;SDS011;4771;48.726;9.006;2022-09-24T06:38:35;9.95;;;8.07;;
9465;SDS011;4771;48.726;9.006;2022-09-24T06:41:03;10.23;;;8.60;;
9465;SDS011;4771;48.726;9.006;2022-09-24T06:43:31;9.30;;;8.30;;
9465;SDS011;4771;48.726;9.006;2022-09-24T06:45:58;11.18;;;8.70;;
9465;SDS011;4771;48.726;9.006;2022-09-24T06:48:27;9.43;;;8.43;;
9465;SDS011;4771;48.726;9.006;2022-09-24T06:50:55;12.23;;;8.65;;
9465;SDS011;4771;48.726;9.006;2022-09-24T06:53:22;9.27;;;8.17;;
9465;SDS011;4771;48.726;9.006;2022-09-24T06:55:49;9.50;;;7.93;;
9465;SDS011;4771;48.726;9.006;2022-09-24T06:58:18;9.00;;;8.05;;
9465;SDS011;4771;48.726;9.006;2022-09-24T07:00:49;11.63;;;8.65;;
9465;SDS011;4771;48.726;9.006;2022-09-24T07:03:18;10.98;;;8.00;;
9465;SDS011;4771;48.726;9.006;2022-09-24T07:05:47;10.57;;;7.93;;
9465;SDS011;4771;48.726;9.006;2022-09-24T07:08:14;11.20;;;7.90;;
9465;SDS011;4771;48.726;9.006;2022-09-24T07:10:41;11.80;;;8.20;;
9465;SDS011;4771;48.726;9.006;2022-09-24T07:13:10;15.60;;;8.10;;
9465;SDS011;4771;48.726;9.006;2022-09-24T07:15:38;8.77;;;7.80;;
9465;SDS011;4771;48.726;9.006;2022-09-24T07:18:05;10.27;;;8.38;;
9465;SDS011;4771;48.726;9.006;2022-09-24T07:20:32;10.93;;;7.53;;
9465;SDS011;4771;48.726;9.006;2022-09-24T07:23:02;13.90;;;7.80;;
9465;SDS011;4771;48.726;9.006;2022-09-24T07:25:30;15.30;;;11.35;;
9465;SDS011;4771;48.726;9.006;2022-09-24T07:28:02;11.35;;;8.57;;
9465;SDS011;4771;48.726;9.006;2022-09-24T07:30:30;12.02;;;8.98;;
9465;SDS011;4771;48.726;9.006;2022-09-24T07:32:57;11.85;;;8.43;;
9465;SDS011;4771;48.726;9.006;2022-09-24T07:35:24;10.75;;;8.20;;
9465;SDS011;4771;48.726;9.006;2022-09-24T07:37:55;11.15;;;9.60;;
9465;SDS011;4771;48.726;9.006;2022-09-24T07:40:24;10.07;;;7.55;;
9465;SDS011;4771;48.726;9.006;2022-09-24T07:42:52;8.13;;;7.28;;
9465;SDS011;4771;48.726;9.006;2022-09-24T07:45:19;8.85;;;7.22;;
9465;SDS011;4771;48.726;9.006;2022-09-24T07:47:47;9.05;;;7.18;;
9465;SDS011;4771;48.726;9.006;2022-09-24T07:50:21;8.90;;;7.57;;
9465;SDS011;4771;48.726;9.006;2022-09-24T07:52:48;9.15;;;7.35;;
9465;SDS011;4771;48.726;9.006;2022-09-24T07:55:15;9.73;;;7.63;;
9465;SDS011;4771;48.726;9.006;2022-09-24T07:57:46;12.50;;;7.28;;
9465;SDS011;4771;48.726;9.006;2022-09-24T08:00:14;8.30;;;6.53;;
9465;SDS011;4771;48.726;9.006;2022-09-24T08:02:41;8.70;;;6.82;;
9465;SDS011;4771;48.726;9.006;2022-09-24T08:05:09;8.77;;;5.75;;
9465;SDS011;4771;48.726;9.006;2022-09-24T08:07:36;8.05;;;5.80;;
9465;SDS011;4771;48.726;9.006;2022-09-24T08:10:04;10.88;;;5.70;;
9465;SDS011;4771;48.726;9.006;2022-09-24T08:12:31;7.18;;;5.45;;
9465;SDS011;4771;48.726;9.006;2022-09-24T08:14:59;8.25;;;5.07;;
9465;SDS011;4771;48.726;9.006;2022-09-24T08:17:26;7.65;;;5.00;;
9465;SDS011;4771;48.726;9.006;2022-09-24T08:19:53;7.03;;;4.78;;
9465;SDS011;4771;48.726;9.006;2022-09-24T08:22:21;5.78;;;4.65;;
9465;SDS011;4771;48.726;9.006;2022-09-24T08:24:48;5.63;;;4.40;;
9465;SDS011;4771;48.726;9.006;2022-09-24T08:27:15;6.13;;;4.55;;
9465;SDS011;4771;48.726;9.006;2022-09-24T08:29:44;6.35;;;5.15;;
9465;SDS011;4771;48.726;9.006;2022-09-24T08:32:12;5.60;;;4.57;;
9465;SDS011;4771;48.726;9.006;2022-09-24T08:34:39;10.07;;;5.22;;
9465;SDS011;4771;48.726;9.006;2022-09-24T08:37:06;5.88;;;4.68;;
9465;SDS011;4771;48.726;9.006;2022-09-24T08:39:33;5.80;;;4.80;;
9465;SDS011;4771;48.726;9.006;2022-09-24T08:42:01;8.20;;;5.05;;
9465;SDS011;4771;48.726;9.006;2022-09-24T08:44:30;7.00;;;5.35;;
9465;SDS011;4771;48.726;9.006;2022-09-24T08:47:25;4.88;;;4.47;;
9465;SDS011;4771;48.726;9.006;2022-09-24T08:50:01;5.93;;;5.25;;
9465;SDS011;4771;48.726;9.006;2022-09-24T08:52:52;9.25;;;5.13;;
9465;SDS011;4771;48.726;9.006;2022-09-24T08:55:38;9.50;;;5.68;;
9465;SDS011;4771;48.726;9.006;2022-09-24T08:58:16;7.85;;;5.22;;
9465;SDS011;4771;48.726;9.006;2022-09-24T09:00:55;9.25;;;6.07;;
9465;SDS011;4771;48.726;9.006;2022-09-24T09:03:29;11.65;;;6.75;;
9465;SDS011;4771;48.726;9.006;2022-09-24T09:06:02;8.15;;;6.20;;
9465;SDS011;4771;48.726;9.006;2022-09-24T09:08:38;8.85;;;6.68;;
9465;SDS011;4771;48.726;9.006;2022-09-24T09:11:14;7.93;;;6.75;;
9465;SDS011;4771;48.726;9.006;2022-09-24T09:13:43;9.27;;;6.60;;
9465;SDS011;4771;48.726;9.006;2022-09-24T09:16:20;6.97;;;6.28;;
9465;SDS011;4771;48.726;9.006;2022-09-24T09:18:51;8.10;;;6.40;;
9465;SDS011;4771;48.726;9.006;2022-09-24T09:21:23;9.48;;;6.18;;
9465;SDS011;4771;48.726;9.006;2022-09-24T09:23:55;8.40;;;6.32;;
9465;SDS011;4771;48.726;9.006;2022-09-24T09:26:24;9.13;;;6.00;;
9465;SDS011;4771;48.726;9.006;2022-09-24T09:28:51;7.55;;;5.82;;
9465;SDS011;4771;48.726;9.006;2022-09-24T09:31:24;6.80;;;6.10;;
9465;SDS011;4771;48.726;9.006;2022-09-24T09:34:13;7.55;;;6.60;;
9465;SDS011;4771;48.726;9.006;2022-09-24T09:36:57;9.63;;;7.05;;
9465;SDS011;4771;48.726;9.006;2022-09-24T09:39:36;7.20;;;5.70;;
9465;SDS011;4771;48.726;9.006;2022-09-24T09:42:22;7.13;;;6.43;;
9465;SDS011;4771;48.726;9.006;2022-09-24T09:44:53;11.40;;;6.47;;
9465;SDS011;4771;48.726;9.006;2022-09-24T09:47:25;9.65;;;6.15;;
9465;SDS011;4771;48.726;9.006;2022-09-24T09:50:04;7.78;;;5.40;;
9465;SDS011;4771;48.726;9.006;2022-09-24T09:52:36;7.57;;;6.10;;
9465;SDS011;4771;48.726;9.006;2022-09-24T09:55:05;8.50;;;5.57;;
9465;SDS011;4771;48.726;9.006;2022-09-24T09:57:32;6.05;;;5.45;;
9465;SDS011;4771;48.726;9.006;2022-09-24T10:00:00;6.15;;;5.28;;
9465;SDS011;4771;48.726;9.006;2022-09-24T10:02:29;6.22;;;5.20;;
9465;SDS011;4771;48.726;9.006;2022-09-24T10:04:58;6.22;;;4.47;;
9465;SDS011;4771;48.726;9.006;2022-09-24T10:07:28;5.95;;;5.10;;
9465;SDS011;4771;48.726;9.006;2022-09-24T10:09:58;4.80;;;3.88;;
9465;SDS011;4771;48.726;9.006;2022-09-24T10:12:27;4.32;;;3.88;;
9465;SDS011;4771;48.726;9.006;2022-09-24T10:14:58;5.63;;;4.13;;
9465;SDS011;4771;48.726;9.006;2022-09-24T10:17:30;5.00;;;3.40;;
9465;SDS011;4771;48.726;9.006;2022-09-24T10:20:01;5.55;;;4.32;;
9465;SDS011;4771;48.726;9.006;2022-09-24T10:22:33;6.82;;;4.25;;
9465;SDS011;4771;48.726;9.006;2022-09-24T10:25:02;5.38;;;4.22;;
9465;SDS011;4771;48.726;9.006;2022-09-24T10:27:31;5.78;;;3.97;;
9465;SDS011;4771;48.726;9.006;2022-09-24T10:30:00;5.57;;;3.72;;
9465;SDS011;4771;48.726;9.006;2022-09-24T10:32:54;7.30;;;4.18;;
9465;SDS011;4771;48.726;9.006;2022-09-24T10:35:24;4.80;;;4.38;;
9465;SDS011;4771;48.726;9.006;2022-09-24T10:37:54;5.40;;;4.15;;
9465;SDS011;4771;48.726;9.006;2022-09-24T10:40:23;6.30;;;4.70;;
9465;SDS011;4771;48.726;9.006;2022-09-24T10:42:55;8.70;;;4.30;;
9465;SDS011;4771;48.726;9.006;2022-09-24T10:45:24;4.85;;;4.25;;
9465;SDS011;4771;48.726;9.006;2022-09-24T10:48:04;4.80;;;4.20;;
9465;SDS011;4771;48.726;9.006;2022-09-24T10:50:43;4.75;;;4.00;;
9465;SDS011;4771;48.726;9.006;2022-09-24T10:53:18;4.47;;;3.88;;
9465;SDS011;4771;48.726;9.006;2022-09-24T10:55:56;4.55;;;3.60;;
9465;SDS011;4771;48.726;9.006;2022-09-24T11:01:36;6.35;;;4.20;;
9465;SDS011;4771;48.726;9.006;2022-09-24T11:04:19;3.97;;;3.35;;
9465;SDS011;4771;48.726;9.006;2022-09-24T11:06:56;4.10;;;3.60;;
9465;SDS011;4771;48.726;9.006;2022-09-24T11:09:53;5.28;;;3.72;;
9465;SDS011;4771;48.726;9.006;2022-09-24T11:12:27;5.05;;;4.35;;
9465;SDS011;4771;48.726;9.006;2022-09-24T11:15:08;4.63;;;4.18;;
9465;SDS011;4771;48.726;9.006;2022-09-24T11:17:52;8.23;;;3.97;;
9465;SDS011;4771;48.726;9.006;2022-09-24T11:20:32;6.38;;;4.43;;
9465;SDS011;4771;48.726;9.006;2022-09-24T11:26:18;4.28;;;3.75;;
9465;SDS011;4771;48.726;9.006;2022-09-24T11:29:05;5.45;;;4.00;;
9465;SDS011;4771;48.726;9.006;2022-09-24T11:31:43;5.03;;;3.95;;
9465;SDS011;4771;48.726;9.006;2022-09-24T11:34:25;5.25;;;4.28;;
9465;SDS011;4771;48.726;9.006;2022-09-24T11:37:05;7.22;;;4.57;;
9465;SDS011;4771;48.726;9.006;2022-09-24T11:39:48;5.43;;;4.32;;
9465;SDS011;4771;48.726;9.006;2022-09-24T11:42:30;6.10;;;4.50;;
9465;SDS011;4771;48.726;9.006;2022-09-24T11:45:11;4.45;;;3.72;;
9465;SDS011;4771;48.726;9.006;2022-09-24T11:47:56;4.47;;;4.00;;
9465;SDS011;4771;48.726;9.006;2022-09-24T11:50:40;6.20;;;4.03;;
9465;SDS011;4771;48.726;9.006;2022-09-24T11:53:16;5.75;;;4.38;;
9465;SDS011;4771;48.726;9.006;2022-09-24T11:55:52;5.05;;;4.55;;
9465;SDS011;4771;48.726;9.006;2022-09-24T11:58:25;4.55;;;4.15;;
9465;SDS011;4771;48.726;9.006;2022-09-24T12:00:58;5.25;;;4.75;;
9465;SDS011;4771;48.726;9.006;2022-09-24T12:03:34;5.03;;;4.53;;
9465;SDS011;4771;48.726;9.006;2022-09-24T12:06:08;5.68;;;4.63;;
9465;SDS011;4771;48.726;9.006;2022-09-24T12:08:38;5.15;;;4.65;;
9465;SDS011;4771;48.726;9.006;2022-09-24T12:11:14;5.82;;;4.70;;
9465;SDS011;4771;48.726;9.006;2022-09-24T12:13:48;5.43;;;4.82;;
9465;SDS011;4771;48.726;9.006;2022-09-24T12:16:21;5.93;;;4.65;;
9465;SDS011;4771;48.726;9.006;2022-09-24T12:18:53;5.18;;;4.68;;
9465;SDS011;4771;48.726;9.006;2022-09-24T12:21:24;5.45;;;4.78;;
9465;SDS011;4771;48.726;9.006;2022-09-24T12:23:54;5.18;;;4.65;;
9465;SDS011;4771;48.726;9.006;2022-09-24T12:26:25;6.30;;;5.28;;
9465;SDS011;4771;48.726;9.006;2022-09-24T12:28:57;6.85;;;5.00;;
9465;SDS011;4771;48.726;9.006;2022-09-24T12:31:51;6.53;;;5.10;;
9465;SDS011;4771;48.726;9.006;2022-09-24T12:34:44;4.80;;;4.28;;
9465;SDS011;4771;48.726;9.006;2022-09-24T12:37:16;4.72;;;3.70;;
9465;SDS011;4771;48.726;9.006;2022-09-24T12:39:48;4.78;;;4.20;;
9465;SDS011;4771;48.726;9.006;2022-09-24T12:42:22;5.25;;;3.42;;
9465;SDS011;4771;48.726;9.006;2022-09-24T12:44:54;4.03;;;2.75;;
9465;SDS011;4771;48.726;9.006;2022-09-24T12:47:25;3.22;;;2.88;;
9465;SDS011;4771;48.726;9.006;2022-09-24T12:49:54;4.30;;;2.75;;
9465;SDS011;4771;48.726;9.006;2022-09-24T12:52:24;2.97;;;2.67;;
9465;SDS011;4771;48.726;9.006;2022-09-24T12:54:57;2.53;;;2.33;;
9465;SDS011;4771;48.726;9.006;2022-09-24T12:57:26;3.35;;;2.70;;
9465;SDS011;4771;48.726;9.006;2022-09-24T12:59:58;4.82;;;3.00;;
9465;SDS011;4771;48.726;9.006;2022-09-24T13:02:26;3.70;;;2.70;;
9465;SDS011;4771;48.726;9.006;2022-09-24T13:05:14;3.22;;;2.92;;
9465;SDS011;4771;48.726;9.006;2022-09-24T13:07:53;3.58;;;3.17;;
9465;SDS011;4771;48.726;9.006;2022-09-24T13:10:23;4.20;;;3.28;;
9465;SDS011;4771;48.726;9.006;2022-09-24T13:12:52;3.10;;;2.80;;
9465;SDS011;4771;48.726;9.006;2022-09-24T13:15:24;3.40;;;3.10;;
9465;SDS011;4771;48.726;9.006;2022-09-24T13:20:29;4.20;;;3.38;;
9465;SDS011;4771;48.726;9.006;2022-09-24T13:22:57;3.22;;;2.90;;
9465;SDS011;4771;48.726;9.006;2022-09-24T13:25:36;4.40;;;3.00;;
9465;SDS011;4771;48.726;9.006;2022-09-24T13:28:18;3.30;;;3.00;;
9465;SDS011;4771;48.726;9.006;2022-09-24T13:30:48;5.10;;;3.33;;
9465;SDS011;4771;48.726;9.006;2022-09-24T13:33:21;3.42;;;2.70;;
9465;SDS011;4771;48.726;9.006;2022-09-24T13:35:58;3.25;;;2.60;;
9465;SDS011;4771;48.726;9.006;2022-09-24T13:38:36;3.25;;;2.42;;
9465;SDS011;4771;48.726;9.006;2022-09-24T13:41:20;3.50;;;2.70;;
9465;SDS011;4771;48.726;9.006;2022-09-24T13:43:51;3.78;;;2.70;;
9465;SDS011;4771;48.726;9.006;2022-09-24T13:46:25;4.10;;;3.10;;
9465;SDS011;4771;48.726;9.006;2022-09-24T13:48:54;4.28;;;2.75;;
9465;SDS011;4771;48.726;9.006;2022-09-24T13:51:26;4.60;;;3.10;;
9465;SDS011;4771;48.726;9.006;2022-09-24T13:53:56;3.40;;;2.85;;
9465;SDS011;4771;48.726;9.006;2022-09-24T13:56:29;5.22;;;2.67;;
9465;SDS011;4771;48.726;9.006;2022-09-24T13:59:01;3.80;;;2.80;;
9465;SDS011;4771;48.726;9.006;2022-09-24T14:01:35;3.20;;;2.90;;
9465;SDS011;4771;48.726;9.006;2022-09-24T14:04:11;2.97;;;2.50;;
9465;SDS011;4771;48.726;9.006;2022-09-24T14:06:42;3.60;;;2.50;;
9465;SDS011;4771;48.726;9.006;2022-09-24T14:09:20;4.75;;;2.83;;
9465;SDS011;4771;48.726;9.006;2022-09-24T14:11:52;3.22;;;2.75;;
9465;SDS011;4771;48.726;9.006;2022-09-24T14:14:23;3.25;;;2.50;;
9465;SDS011;4771;48.726;9.006;2022-09-24T14:17:04;6.10;;;2.60;;
9465;SDS011;4771;48.726;9.006;2022-09-24T14:19:31;3.65;;;2.65;;
9465;SDS011;4771;48.726;9.006;2022-09-24T14:22:00;4.25;;;2.50;;
9465;SDS011;4771;48.726;9.006;2022-09-24T14:24:30;3.42;;;2.80;;
9465;SDS011;4771;48.726;9.006;2022-09-24T14:27:00;3.38;;;2.90;;
9465;SDS011;4771;48.726;9.006;2022-09-24T14:29:32;4.78;;;2.95;;
9465;SDS011;4771;48.726;9.006;2022-09-24T14:32:06;4.35;;;2.97;;
9465;SDS011;4771;48.726;9.006;2022-09-24T14:34:46;3.22;;;2.92;;
9465;SDS011;4771;48.726;9.006;2022-09-24T14:37:18;4.47;;;3.10;;
9465;SDS011;4771;48.726;9.006;2022-09-24T14:39:50;4.00;;;3.00;;
9465;SDS011;4771;48.726;9.006;2022-09-24T14:42:24;6.25;;;3.38;;
9465;SDS011;4771;48.726;9.006;2022-09-24T14:44:54;4.07;;;3.30;;
9465;SDS011;4771;48.726;9.006;2022-09-24T14:47:27;3.70;;;3.38;;
9465;SDS011;4771;48.726;9.006;2022-09-24T14:49:55;4.18;;;3.30;;
9465;SDS011;4771;48.726;9.006;2022-09-24T14:52:26;3.58;;;2.88;;
9465;SDS011;4771;48.726;9.006;2022-09-24T14:55:00;4.60;;;3.20;;
9465;SDS011;4771;48.726;9.006;2022-09-24T14:57:36;5.53;;;3.78;;
9465;SDS011;4771;48.726;9.006;2022-09-24T15:00:17;4.38;;;3.38;;
9465;SDS011;4771;48.726;9.006;2022-09-24T15:02:48;4.80;;;3.67;;
9465;SDS011;4771;48.726;9.006;2022-09-24T15:05:22;4.72;;;4.03;;
9465;SDS011;4771;48.726;9.006;2022-09-24T15:07:50;4.22;;;3.80;;
9465;SDS011;4771;48.726;9.006;2022-09-24T15:10:19;5.40;;;4.13;;
9465;SDS011;4771;48.726;9.006;2022-09-24T15:12:47;5.05;;;4.07;;
9465;SDS011;4771;48.726;9.006;2022-09-24T15:15:26;5.30;;;4.13;;
9465;SDS011;4771;48.726;9.006;2022-09-24T15:17:57;4.28;;;3.80;;
9465;SDS011;4771;48.726;9.006;2022-09-24T15:20:24;5.40;;;3.85;;
9465;SDS011;4771;48.726;9.006;2022-09-24T15:22:51;5.57;;;4.13;;
9465;SDS011;4771;48.726;9.006;2022-09-24T15:25:18;4.70;;;4.00;;
9465;SDS011;4771;48.726;9.006;2022-09-24T15:27:45;4.70;;;4.10;;
9465;SDS011;4771;48.726;9.006;2022-09-24T15:30:16;4.00;;;3.60;;
9465;SDS011;4771;48.726;9.006;2022-09-24T15:32:45;4.97;;;3.97;;
9465;SDS011;4771;48.726;9.006;2022-09-24T15:35:18;5.47;;;3.63;;
9465;SDS011;4771;48.726;9.006;2022-09-24T15:37:45;7.07;;;3.90;;
9465;SDS011;4771;48.726;9.006;2022-09-24T15:40:27;4.72;;;3.65;;
9465;SDS011;4771;48.726;9.006;2022-09-24T15:42:57;6.05;;;3.78;;
9465;SDS011;4771;48.726;9.006;2022-09-24T15:45:24;5.57;;;3.60;;